sensor_id;sensor_type;location;lat;lon;timestamp;P1;durP1;ratioP1;P2;durP2;ratioP2
291;SDS011;23311;48.776;9.162;2023-03-13T00:01:13;7.90;;;2.97;;
291;SDS011;23311;48.776;9.162;2023-03-13T00:03:43;9.40;;;3.03;;
291;SDS011;23311;48.776;9.162;2023-03-13T00:06:11;6.33;;;3.50;;
291;SDS011;23311;48.776;9.162;2023-03-13T00:08:40;6.33;;;3.27;;
291;SDS011;23311;48.776;9.162;2023-03-13T00:11:09;6.03;;;3.37;;
291;SDS011;23311;48.776;9.162;2023-03-13T00:13:38;9.83;;;4.17;;
291;SDS011;23311;48.776;9.162;2023-03-13T00:16:09;7.40;;;3.20;;
291;SDS011;23311;48.776;9.162;2023-03-13T00:18:38;7.10;;;3.50;;
291;SDS011;23311;48.776;9.162;2023-03-13T00:21:10;7.83;;;3.77;;
291;SDS011;23311;48.776;9.162;2023-03-13T00:23:38;6.00;;;3.67;;
291;SDS011;23311;48.776;9.162;2023-03-13T00:26:07;5.97;;;3.23;;
291;SDS011;23311;48.776;9.162;2023-03-13T00:28:37;7.87;;;4.00;;
291;SDS011;23311;48.776;9.162;2023-03-13T00:31:08;9.80;;;3.70;;
291;SDS011;23311;48.776;9.162;2023-03-13T00:33:38;7.27;;;3.20;;
291;SDS011;23311;48.776;9.162;2023-03-13T00:36:08;5.37;;;3.13;;
291;SDS011;23311;48.776;9.162;2023-03-13T00:38:38;8.07;;;3.87;;
291;SDS011;23311;48.776;9.162;2023-03-13T00:41:07;7.90;;;4.27;;
291;SDS011;23311;48.776;9.162;2023-03-13T00:43:37;8.20;;;3.73;;
291;SDS011;23311;48.776;9.162;2023-03-13T00:46:08;6.50;;;3.60;;
291;SDS011;23311;48.776;9.162;2023-03-13T00:48:37;11.77;;;4.70;;
291;SDS011;23311;48.776;9.162;2023-03-13T00:51:05;11.93;;;4.50;;
291;SDS011;23311;48.776;9.162;2023-03-13T00:53:34;8.03;;;4.10;;
291;SDS011;23311;48.776;9.162;2023-03-13T00:56:03;7.87;;;3.63;;
291;SDS011;23311;48.776;9.162;2023-03-13T00:58:32;5.50;;;3.17;;
291;SDS011;23311;48.776;9.162;2023-03-13T01:01:05;6.60;;;3.53;;
291;SDS011;23311;48.776;9.162;2023-03-13T01:03:36;8.93;;;3.73;;
291;SDS011;23311;48.776;9.162;2023-03-13T01:06:06;10.90;;;4.60;;
291;SDS011;23311;48.776;9.162;2023-03-13T01:08:35;7.83;;;3.20;;
291;SDS011;23311;48.776;9.162;2023-03-13T01:11:04;7.13;;;3.40;;
291;SDS011;23311;48.776;9.162;2023-03-13T01:13:34;7.43;;;3.60;;
291;SDS011;23311;48.776;9.162;2023-03-13T01:16:03;9.53;;;4.23;;
291;SDS011;23311;48.776;9.162;2023-03-13T01:18:34;8.00;;;3.40;;
291;SDS011;23311;48.776;9.162;2023-03-13T01:21:03;12.00;;;4.53;;
291;SDS011;23311;48.776;9.162;2023-03-13T01:23:33;10.03;;;3.40;;
291;SDS011;23311;48.776;9.162;2023-03-13T01:26:02;10.13;;;4.07;;
291;SDS011;23311;48.776;9.162;2023-03-13T01:28:32;5.50;;;3.10;;
291;SDS011;23311;48.776;9.162;2023-03-13T01:31:01;9.13;;;3.30;;
291;SDS011;23311;48.776;9.162;2023-03-13T01:33:38;7.30;;;3.37;;
291;SDS011;23311;48.776;9.162;2023-03-13T01:36:07;8.60;;;3.83;;
291;SDS011;23311;48.776;9.162;2023-03-13T01:38:35;6.90;;;3.30;;
291;SDS011;23311;48.776;9.162;2023-03-13T01:41:04;7.73;;;4.80;;
291;SDS011;23311;48.776;9.162;2023-03-13T01:43:34;6.83;;;3.17;;
291;SDS011;23311;48.776;9.162;2023-03-13T01:46:04;11.77;;;4.20;;
291;SDS011;23311;48.776;9.162;2023-03-13T01:48:42;9.50;;;3.57;;
291;SDS011;23311;48.776;9.162;2023-03-13T01:51:16;10.17;;;3.97;;
291;SDS011;23311;48.776;9.162;2023-03-13T01:53:49;8.40;;;4.30;;
291;SDS011;23311;48.776;9.162;2023-03-13T01:56:21;9.30;;;4.27;;
291;SDS011;23311;48.776;9.162;2023-03-13T01:58:53;10.40;;;3.63;;
291;SDS011;23311;48.776;9.162;2023-03-13T02:01:24;8.00;;;3.57;;
291;SDS011;23311;48.776;9.162;2023-03-13T02:03:54;10.30;;;3.57;;
291;SDS011;23311;48.776;9.162;2023-03-13T02:06:24;8.80;;;2.80;;
291;SDS011;23311;48.776;9.162;2023-03-13T02:08:57;4.73;;;2.80;;
291;SDS011;23311;48.776;9.162;2023-03-13T02:11:32;10.43;;;3.30;;
291;SDS011;23311;48.776;9.162;2023-03-13T02:14:06;9.23;;;2.77;;
291;SDS011;23311;48.776;9.162;2023-03-13T02:16:35;12.13;;;4.33;;
291;SDS011;23311;48.776;9.162;2023-03-13T02:19:09;6.87;;;2.50;;
291;SDS011;23311;48.776;9.162;2023-03-13T02:21:46;2.87;;;1.90;;
291;SDS011;23311;48.776;9.162;2023-03-13T02:24:20;7.30;;;2.40;;
291;SDS011;23311;48.776;9.162;2023-03-13T02:26:57;5.77;;;2.03;;
291;SDS011;23311;48.776;9.162;2023-03-13T02:29:25;7.20;;;2.00;;
291;SDS011;23311;48.776;9.162;2023-03-13T02:31:54;5.30;;;2.07;;
291;SDS011;23311;48.776;9.162;2023-03-13T02:34:23;4.80;;;1.33;;
291;SDS011;23311;48.776;9.162;2023-03-13T02:36:55;4.30;;;2.30;;
291;SDS011;23311;48.776;9.162;2023-03-13T02:39:24;10.40;;;4.40;;
291;SDS011;23311;48.776;9.162;2023-03-13T02:41:54;7.87;;;2.00;;
291;SDS011;23311;48.776;9.162;2023-03-13T02:44:24;6.20;;;1.90;;
291;SDS011;23311;48.776;9.162;2023-03-13T02:46:52;3.83;;;1.57;;
291;SDS011;23311;48.776;9.162;2023-03-13T02:49:22;4.97;;;1.77;;
291;SDS011;23311;48.776;9.162;2023-03-13T02:51:52;9.03;;;1.80;;
291;SDS011;23311;48.776;9.162;2023-03-13T02:54:21;2.40;;;1.17;;
291;SDS011;23311;48.776;9.162;2023-03-13T02:56:53;4.47;;;1.83;;
291;SDS011;23311;48.776;9.162;2023-03-13T02:59:28;5.10;;;1.50;;
291;SDS011;23311;48.776;9.162;2023-03-13T03:01:56;5.57;;;1.57;;
291;SDS011;23311;48.776;9.162;2023-03-13T03:04:24;1.90;;;1.27;;
291;SDS011;23311;48.776;9.162;2023-03-13T03:06:53;2.47;;;1.23;;
291;SDS011;23311;48.776;9.162;2023-03-13T03:09:21;2.37;;;1.27;;
291;SDS011;23311;48.776;9.162;2023-03-13T03:11:50;3.37;;;1.30;;
291;SDS011;23311;48.776;9.162;2023-03-13T03:14:18;4.43;;;1.40;;
291;SDS011;23311;48.776;9.162;2023-03-13T03:16:47;3.70;;;1.30;;
291;SDS011;23311;48.776;9.162;2023-03-13T03:19:15;2.70;;;1.30;;
291;SDS011;23311;48.776;9.162;2023-03-13T03:21:43;2.03;;;1.23;;
291;SDS011;23311;48.776;9.162;2023-03-13T03:24:12;6.33;;;1.80;;
291;SDS011;23311;48.776;9.162;2023-03-13T03:26:40;7.20;;;2.13;;
291;SDS011;23311;48.776;9.162;2023-03-13T03:29:08;8.40;;;1.50;;
291;SDS011;23311;48.776;9.162;2023-03-13T03:31:36;3.40;;;2.03;;
291;SDS011;23311;48.776;9.162;2023-03-13T03:34:05;3.27;;;1.10;;
291;SDS011;23311;48.776;9.162;2023-03-13T03:36:33;3.40;;;1.50;;
291;SDS011;23311;48.776;9.162;2023-03-13T03:39:02;3.50;;;1.27;;
291;SDS011;23311;48.776;9.162;2023-03-13T03:41:30;3.40;;;1.20;;
291;SDS011;23311;48.776;9.162;2023-03-13T03:43:58;3.30;;;1.10;;
291;SDS011;23311;48.776;9.162;2023-03-13T03:46:26;5.63;;;1.60;;
291;SDS011;23311;48.776;9.162;2023-03-13T03:48:54;5.07;;;1.77;;
291;SDS011;23311;48.776;9.162;2023-03-13T03:51:24;2.13;;;1.23;;
291;SDS011;23311;48.776;9.162;2023-03-13T03:53:52;2.33;;;1.50;;
291;SDS011;23311;48.776;9.162;2023-03-13T03:56:20;3.63;;;1.30;;
291;SDS011;23311;48.776;9.162;2023-03-13T03:58:48;2.53;;;1.20;;
291;SDS011;23311;48.776;9.162;2023-03-13T04:01:17;4.57;;;2.70;;
291;SDS011;23311;48.776;9.162;2023-03-13T04:03:44;2.40;;;1.20;;
291;SDS011;23311;48.776;9.162;2023-03-13T04:06:13;2.83;;;0.90;;
291;SDS011;23311;48.776;9.162;2023-03-13T04:08:43;3.40;;;0.90;;
291;SDS011;23311;48.776;9.162;2023-03-13T04:11:11;5.37;;;1.33;;
291;SDS011;23311;48.776;9.162;2023-03-13T04:13:39;3.37;;;1.70;;
291;SDS011;23311;48.776;9.162;2023-03-13T04:16:07;2.97;;;1.10;;
291;SDS011;23311;48.776;9.162;2023-03-13T04:18:36;3.53;;;1.10;;
291;SDS011;23311;48.776;9.162;2023-03-13T04:21:04;2.70;;;1.13;;
291;SDS011;23311;48.776;9.162;2023-03-13T04:23:33;1.90;;;0.60;;
291;SDS011;23311;48.776;9.162;2023-03-13T04:26:02;1.30;;;0.60;;
291;SDS011;23311;48.776;9.162;2023-03-13T04:28:30;3.30;;;1.10;;
291;SDS011;23311;48.776;9.162;2023-03-13T04:30:58;1.83;;;0.60;;
291;SDS011;23311;48.776;9.162;2023-03-13T04:33:26;2.00;;;0.67;;
291;SDS011;23311;48.776;9.162;2023-03-13T04:35:54;2.60;;;0.80;;
291;SDS011;23311;48.776;9.162;2023-03-13T04:38:22;1.50;;;0.70;;
291;SDS011;23311;48.776;9.162;2023-03-13T04:40:51;1.30;;;0.50;;
291;SDS011;23311;48.776;9.162;2023-03-13T04:43:21;1.63;;;0.50;;
291;SDS011;23311;48.776;9.162;2023-03-13T04:45:50;1.83;;;0.80;;
291;SDS011;23311;48.776;9.162;2023-03-13T04:48:19;1.50;;;0.70;;
291;SDS011;23311;48.776;9.162;2023-03-13T04:50:48;1.00;;;0.60;;
291;SDS011;23311;48.776;9.162;2023-03-13T04:53:16;1.40;;;0.60;;
291;SDS011;23311;48.776;9.162;2023-03-13T04:55:46;1.70;;;0.77;;
291;SDS011;23311;48.776;9.162;2023-03-13T04:58:16;1.73;;;0.63;;
291;SDS011;23311;48.776;9.162;2023-03-13T05:00:45;1.13;;;0.63;;
291;SDS011;23311;48.776;9.162;2023-03-13T05:03:13;1.93;;;0.83;;
291;SDS011;23311;48.776;9.162;2023-03-13T05:05:41;2.03;;;0.60;;
291;SDS011;23311;48.776;9.162;2023-03-13T05:08:09;2.07;;;0.73;;
291;SDS011;23311;48.776;9.162;2023-03-13T05:10:37;1.73;;;0.60;;
291;SDS011;23311;48.776;9.162;2023-03-13T05:13:05;1.90;;;0.87;;
291;SDS011;23311;48.776;9.162;2023-03-13T05:15:33;2.13;;;0.60;;
291;SDS011;23311;48.776;9.162;2023-03-13T05:18:03;1.70;;;0.60;;
291;SDS011;23311;48.776;9.162;2023-03-13T05:20:31;2.30;;;0.80;;
291;SDS011;23311;48.776;9.162;2023-03-13T05:22:59;3.73;;;0.73;;
291;SDS011;23311;48.776;9.162;2023-03-13T05:25:28;1.40;;;0.53;;
291;SDS011;23311;48.776;9.162;2023-03-13T05:27:56;1.97;;;0.60;;
291;SDS011;23311;48.776;9.162;2023-03-13T05:30:24;3.90;;;0.63;;
291;SDS011;23311;48.776;9.162;2023-03-13T05:32:53;1.57;;;1.07;;
291;SDS011;23311;48.776;9.162;2023-03-13T05:35:22;1.67;;;0.90;;
291;SDS011;23311;48.776;9.162;2023-03-13T05:37:50;2.43;;;0.70;;
291;SDS011;23311;48.776;9.162;2023-03-13T05:40:18;2.93;;;0.90;;
291;SDS011;23311;48.776;9.162;2023-03-13T05:42:46;1.57;;;0.60;;
291;SDS011;23311;48.776;9.162;2023-03-13T05:45:14;1.70;;;1.07;;
291;SDS011;23311;48.776;9.162;2023-03-13T05:47:42;2.37;;;0.67;;
291;SDS011;23311;48.776;9.162;2023-03-13T05:50:10;2.23;;;1.17;;
291;SDS011;23311;48.776;9.162;2023-03-13T05:52:40;1.60;;;0.90;;
291;SDS011;23311;48.776;9.162;2023-03-13T05:55:08;1.20;;;0.50;;
291;SDS011;23311;48.776;9.162;2023-03-13T05:57:36;1.23;;;0.77;;
291;SDS011;23311;48.776;9.162;2023-03-13T06:00:05;1.50;;;0.60;;
291;SDS011;23311;48.776;9.162;2023-03-13T06:02:34;1.27;;;0.63;;
291;SDS011;23311;48.776;9.162;2023-03-13T06:05:02;1.77;;;0.70;;
291;SDS011;23311;48.776;9.162;2023-03-13T06:07:30;1.43;;;0.57;;
291;SDS011;23311;48.776;9.162;2023-03-13T06:09:59;1.40;;;0.90;;
291;SDS011;23311;48.776;9.162;2023-03-13T06:12:27;1.97;;;0.70;;
291;SDS011;23311;48.776;9.162;2023-03-13T06:14:55;4.67;;;2.50;;
291;SDS011;23311;48.776;9.162;2023-03-13T06:17:23;1.00;;;0.60;;
291;SDS011;23311;48.776;9.162;2023-03-13T06:19:51;1.50;;;0.70;;
291;SDS011;23311;48.776;9.162;2023-03-13T06:22:19;2.40;;;0.70;;
291;SDS011;23311;48.776;9.162;2023-03-13T06:24:47;1.50;;;0.40;;
291;SDS011;23311;48.776;9.162;2023-03-13T06:27:17;1.33;;;0.57;;
291;SDS011;23311;48.776;9.162;2023-03-13T06:29:45;1.20;;;0.57;;
291;SDS011;23311;48.776;9.162;2023-03-13T06:32:13;1.63;;;0.57;;
291;SDS011;23311;48.776;9.162;2023-03-13T06:34:41;1.00;;;0.53;;
291;SDS011;23311;48.776;9.162;2023-03-13T06:37:09;1.37;;;0.60;;
291;SDS011;23311;48.776;9.162;2023-03-13T06:39:38;1.67;;;0.67;;
291;SDS011;23311;48.776;9.162;2023-03-13T06:42:06;2.23;;;0.60;;
291;SDS011;23311;48.776;9.162;2023-03-13T06:44:35;2.20;;;0.70;;
291;SDS011;23311;48.776;9.162;2023-03-13T06:47:04;1.97;;;0.67;;
291;SDS011;23311;48.776;9.162;2023-03-13T06:49:32;1.43;;;0.50;;
291;SDS011;23311;48.776;9.162;2023-03-13T06:52:00;1.33;;;0.50;;
291;SDS011;23311;48.776;9.162;2023-03-13T06:54:28;1.17;;;0.50;;
291;SDS011;23311;48.776;9.162;2023-03-13T06:56:56;1.47;;;0.70;;
291;SDS011;23311;48.776;9.162;2023-03-13T06:59:24;1.83;;;0.87;;
291;SDS011;23311;48.776;9.162;2023-03-13T07:01:54;1.60;;;0.73;;
291;SDS011;23311;48.776;9.162;2023-03-13T07:04:22;1.60;;;0.60;;
291;SDS011;23311;48.776;9.162;2023-03-13T07:06:50;1.17;;;0.43;;
291;SDS011;23311;48.776;9.162;2023-03-13T07:09:18;1.00;;;0.50;;
291;SDS011;23311;48.776;9.162;2023-03-13T07:11:46;1.17;;;0.50;;
291;SDS011;23311;48.776;9.162;2023-03-13T07:14:14;1.20;;;0.60;;
291;SDS011;23311;48.776;9.162;2023-03-13T07:16:43;1.30;;;0.70;;
291;SDS011;23311;48.776;9.162;2023-03-13T07:19:13;1.10;;;0.50;;
291;SDS011;23311;48.776;9.162;2023-03-13T07:21:41;1.00;;;0.40;;
291;SDS011;23311;48.776;9.162;2023-03-13T07:24:10;1.40;;;0.50;;
291;SDS011;23311;48.776;9.162;2023-03-13T07:26:38;1.80;;;0.60;;
291;SDS011;23311;48.776;9.162;2023-03-13T07:29:19;1.40;;;0.70;;
291;SDS011;23311;48.776;9.162;2023-03-13T07:31:47;3.30;;;0.60;;
291;SDS011;23311;48.776;9.162;2023-03-13T07:34:17;1.90;;;0.67;;
291;SDS011;23311;48.776;9.162;2023-03-13T07:36:45;1.10;;;0.50;;
291;SDS011;23311;48.776;9.162;2023-03-13T07:39:13;1.00;;;0.50;;
291;SDS011;23311;48.776;9.162;2023-03-13T07:41:41;1.83;;;0.90;;
291;SDS011;23311;48.776;9.162;2023-03-13T07:44:09;1.93;;;0.57;;
291;SDS011;23311;48.776;9.162;2023-03-13T07:46:37;1.77;;;0.80;;
291;SDS011;23311;48.776;9.162;2023-03-13T07:49:05;1.07;;;0.60;;
291;SDS011;23311;48.776;9.162;2023-03-13T07:51:35;0.93;;;0.50;;
291;SDS011;23311;48.776;9.162;2023-03-13T07:54:09;1.10;;;0.53;;
291;SDS011;23311;48.776;9.162;2023-03-13T07:56:38;1.60;;;1.00;;
291;SDS011;23311;48.776;9.162;2023-03-13T07:59:06;1.87;;;0.83;;
291;SDS011;23311;48.776;9.162;2023-03-13T08:01:35;2.00;;;1.17;;
291;SDS011;23311;48.776;9.162;2023-03-13T08:04:03;1.07;;;0.60;;
291;SDS011;23311;48.776;9.162;2023-03-13T08:06:32;2.23;;;0.70;;
291;SDS011;23311;48.776;9.162;2023-03-13T08:09:03;4.80;;;0.73;;
291;SDS011;23311;48.776;9.162;2023-03-13T08:11:32;1.17;;;0.63;;
291;SDS011;23311;48.776;9.162;2023-03-13T08:14:00;1.20;;;0.63;;
291;SDS011;23311;48.776;9.162;2023-03-13T08:16:29;1.10;;;0.53;;
291;SDS011;23311;48.776;9.162;2023-03-13T08:19:00;1.93;;;0.60;;
291;SDS011;23311;48.776;9.162;2023-03-13T08:21:31;2.57;;;0.60;;
291;SDS011;23311;48.776;9.162;2023-03-13T08:24:03;1.10;;;0.60;;
291;SDS011;23311;48.776;9.162;2023-03-13T08:26:33;1.40;;;0.60;;
291;SDS011;23311;48.776;9.162;2023-03-13T08:29:04;1.30;;;0.70;;
291;SDS011;23311;48.776;9.162;2023-03-13T08:31:34;1.30;;;0.70;;
291;SDS011;23311;48.776;9.162;2023-03-13T08:34:04;1.17;;;0.60;;
291;SDS011;23311;48.776;9.162;2023-03-13T08:36:33;2.40;;;0.80;;
291;SDS011;23311;48.776;9.162;2023-03-13T08:39:06;4.53;;;0.77;;
291;SDS011;23311;48.776;9.162;2023-03-13T08:41:37;1.90;;;0.70;;
291;SDS011;23311;48.776;9.162;2023-03-13T08:44:07;1.77;;;0.70;;
291;SDS011;23311;48.776;9.162;2023-03-13T08:46:37;0.80;;;0.40;;
291;SDS011;23311;48.776;9.162;2023-03-13T08:49:06;1.53;;;0.80;;
291;SDS011;23311;48.776;9.162;2023-03-13T08:51:35;1.50;;;0.80;;
291;SDS011;23311;48.776;9.162;2023-03-13T08:54:04;1.93;;;1.00;;
291;SDS011;23311;48.776;9.162;2023-03-13T08:56:33;1.67;;;0.73;;
291;SDS011;23311;48.776;9.162;2023-03-13T08:59:01;1.40;;;0.60;;
291;SDS011;23311;48.776;9.162;2023-03-13T09:01:31;1.17;;;0.67;;
291;SDS011;23311;48.776;9.162;2023-03-13T09:04:01;1.57;;;0.73;;
291;SDS011;23311;48.776;9.162;2023-03-13T09:06:30;2.63;;;0.80;;
291;SDS011;23311;48.776;9.162;2023-03-13T09:08:58;1.70;;;0.73;;
291;SDS011;23311;48.776;9.162;2023-03-13T09:11:28;2.70;;;0.93;;
291;SDS011;23311;48.776;9.162;2023-03-13T09:13:56;2.20;;;0.87;;
291;SDS011;23311;48.776;9.162;2023-03-13T09:16:26;2.37;;;0.60;;
291;SDS011;23311;48.776;9.162;2023-03-13T09:18:55;1.60;;;0.70;;
291;SDS011;23311;48.776;9.162;2023-03-13T09:21:24;5.13;;;1.10;;
291;SDS011;23311;48.776;9.162;2023-03-13T09:23:53;2.70;;;0.87;;
291;SDS011;23311;48.776;9.162;2023-03-13T09:26:22;1.93;;;0.70;;
291;SDS011;23311;48.776;9.162;2023-03-13T09:28:52;1.37;;;0.63;;
291;SDS011;23311;48.776;9.162;2023-03-13T09:31:21;1.77;;;0.60;;
291;SDS011;23311;48.776;9.162;2023-03-13T09:33:50;1.97;;;0.87;;
291;SDS011;23311;48.776;9.162;2023-03-13T09:36:19;2.03;;;0.70;;
291;SDS011;23311;48.776;9.162;2023-03-13T09:38:49;1.20;;;0.70;;
291;SDS011;23311;48.776;9.162;2023-03-13T09:41:20;2.57;;;0.60;;
291;SDS011;23311;48.776;9.162;2023-03-13T09:43:53;2.17;;;1.10;;
291;SDS011;23311;48.776;9.162;2023-03-13T09:46:27;2.20;;;0.70;;
291;SDS011;23311;48.776;9.162;2023-03-13T09:49:03;2.20;;;1.10;;
291;SDS011;23311;48.776;9.162;2023-03-13T09:51:36;5.03;;;1.30;;
291;SDS011;23311;48.776;9.162;2023-03-13T09:54:08;1.43;;;0.90;;
291;SDS011;23311;48.776;9.162;2023-03-13T09:56:46;1.30;;;0.70;;
291;SDS011;23311;48.776;9.162;2023-03-13T09:59:21;2.43;;;0.80;;
291;SDS011;23311;48.776;9.162;2023-03-13T10:01:56;1.70;;;1.10;;
291;SDS011;23311;48.776;9.162;2023-03-13T10:04:28;3.40;;;1.23;;
291;SDS011;23311;48.776;9.162;2023-03-13T10:07:02;2.40;;;0.90;;
291;SDS011;23311;48.776;9.162;2023-03-13T10:09:30;3.87;;;0.90;;
291;SDS011;23311;48.776;9.162;2023-03-13T10:12:06;2.27;;;1.03;;
291;SDS011;23311;48.776;9.162;2023-03-13T10:14:43;1.60;;;1.23;;
291;SDS011;23311;48.776;9.162;2023-03-13T10:17:21;4.20;;;1.27;;
291;SDS011;23311;48.776;9.162;2023-03-13T10:19:57;2.20;;;1.43;;
291;SDS011;23311;48.776;9.162;2023-03-13T10:22:32;2.20;;;1.23;;
291;SDS011;23311;48.776;9.162;2023-03-13T10:25:02;2.77;;;1.47;;
291;SDS011;23311;48.776;9.162;2023-03-13T10:27:41;2.33;;;1.10;;
291;SDS011;23311;48.776;9.162;2023-03-13T10:30:17;2.03;;;0.90;;
291;SDS011;23311;48.776;9.162;2023-03-13T10:32:49;5.20;;;1.10;;
291;SDS011;23311;48.776;9.162;2023-03-13T10:35:21;2.30;;;1.10;;
291;SDS011;23311;48.776;9.162;2023-03-13T10:37:50;3.97;;;1.30;;
291;SDS011;23311;48.776;9.162;2023-03-13T10:40:28;3.90;;;1.77;;
291;SDS011;23311;48.776;9.162;2023-03-13T10:43:01;4.30;;;1.20;;
291;SDS011;23311;48.776;9.162;2023-03-13T10:45:33;1.70;;;1.00;;
291;SDS011;23311;48.776;9.162;2023-03-13T10:48:03;3.20;;;1.23;;
291;SDS011;23311;48.776;9.162;2023-03-13T10:50:40;2.13;;;1.07;;
291;SDS011;23311;48.776;9.162;2023-03-13T10:53:20;6.33;;;1.43;;
291;SDS011;23311;48.776;9.162;2023-03-13T10:55:51;1.70;;;1.13;;
291;SDS011;23311;48.776;9.162;2023-03-13T10:58:22;2.10;;;1.30;;
291;SDS011;23311;48.776;9.162;2023-03-13T11:00:55;1.50;;;1.10;;
291;SDS011;23311;48.776;9.162;2023-03-13T11:03:44;2.27;;;1.33;;
291;SDS011;23311;48.776;9.162;2023-03-13T11:06:23;4.10;;;1.40;;
291;SDS011;23311;48.776;9.162;2023-03-13T11:08:58;2.37;;;1.43;;
291;SDS011;23311;48.776;9.162;2023-03-13T11:11:28;2.33;;;1.20;;
291;SDS011;23311;48.776;9.162;2023-03-13T11:14:06;2.13;;;1.90;;
291;SDS011;23311;48.776;9.162;2023-03-13T11:16:38;4.60;;;1.40;;
291;SDS011;23311;48.776;9.162;2023-03-13T11:19:19;2.80;;;1.67;;
291;SDS011;23311;48.776;9.162;2023-03-13T11:22:04;1.53;;;1.20;;
291;SDS011;23311;48.776;9.162;2023-03-13T11:24:41;1.77;;;1.20;;
291;SDS011;23311;48.776;9.162;2023-03-13T11:27:18;1.80;;;1.10;;
291;SDS011;23311;48.776;9.162;2023-03-13T11:29:57;1.80;;;1.30;;
291;SDS011;23311;48.776;9.162;2023-03-13T11:32:39;1.90;;;1.07;;
291;SDS011;23311;48.776;9.162;2023-03-13T11:35:14;2.20;;;1.10;;
291;SDS011;23311;48.776;9.162;2023-03-13T11:37:54;1.97;;;1.00;;
291;SDS011;23311;48.776;9.162;2023-03-13T11:40:24;5.43;;;1.57;;
291;SDS011;23311;48.776;9.162;2023-03-13T11:43:02;3.93;;;1.80;;
291;SDS011;23311;48.776;9.162;2023-03-13T11:45:55;3.30;;;1.80;;
291;SDS011;23311;48.776;9.162;2023-03-13T11:48:48;2.57;;;1.23;;
291;SDS011;23311;48.776;9.162;2023-03-13T11:51:35;2.80;;;1.57;;
291;SDS011;23311;48.776;9.162;2023-03-13T11:54:29;2.80;;;1.20;;
291;SDS011;23311;48.776;9.162;2023-03-13T11:57:12;2.80;;;1.30;;
291;SDS011;23311;48.776;9.162;2023-03-13T11:59:46;2.30;;;1.20;;
291;SDS011;23311;48.776;9.162;2023-03-13T12:02:21;2.67;;;1.37;;
291;SDS011;23311;48.776;9.162;2023-03-13T12:04:54;2.63;;;1.30;;
291;SDS011;23311;48.776;9.162;2023-03-13T12:07:27;2.20;;;1.23;;
291;SDS011;23311;48.776;9.162;2023-03-13T12:09:59;2.50;;;1.10;;
291;SDS011;23311;48.776;9.162;2023-03-13T12:12:32;3.70;;;1.20;;
291;SDS011;23311;48.776;9.162;2023-03-13T12:15:13;2.43;;;1.00;;
291;SDS011;23311;48.776;9.162;2023-03-13T12:17:47;1.20;;;0.80;;
291;SDS011;23311;48.776;9.162;2023-03-13T12:20:20;2.30;;;1.17;;
291;SDS011;23311;48.776;9.162;2023-03-13T12:22:54;3.43;;;1.30;;
291;SDS011;23311;48.776;9.162;2023-03-13T12:25:27;2.33;;;1.00;;
291;SDS011;23311;48.776;9.162;2023-03-13T12:28:04;1.90;;;1.03;;
291;SDS011;23311;48.776;9.162;2023-03-13T12:30:51;2.83;;;1.57;;
291;SDS011;23311;48.776;9.162;2023-03-13T12:33:29;1.40;;;0.90;;
291;SDS011;23311;48.776;9.162;2023-03-13T12:36:04;2.10;;;1.27;;
291;SDS011;23311;48.776;9.162;2023-03-13T12:38:39;2.73;;;1.30;;
291;SDS011;23311;48.776;9.162;2023-03-13T12:41:17;1.60;;;1.17;;
291;SDS011;23311;48.776;9.162;2023-03-13T12:43:50;2.77;;;1.17;;
291;SDS011;23311;48.776;9.162;2023-03-13T12:46:38;2.03;;;1.13;;
291;SDS011;23311;48.776;9.162;2023-03-13T12:49:24;2.23;;;1.07;;
291;SDS011;23311;48.776;9.162;2023-03-13T12:52:23;2.17;;;1.37;;
291;SDS011;23311;48.776;9.162;2023-03-13T12:55:12;3.60;;;1.20;;
291;SDS011;23311;48.776;9.162;2023-03-13T12:57:58;2.63;;;1.00;;
291;SDS011;23311;48.776;9.162;2023-03-13T13:00:36;2.40;;;0.70;;
291;SDS011;23311;48.776;9.162;2023-03-13T13:03:09;2.20;;;0.93;;
291;SDS011;23311;48.776;9.162;2023-03-13T13:05:58;2.77;;;1.10;;
291;SDS011;23311;48.776;9.162;2023-03-13T13:08:35;1.77;;;1.10;;
291;SDS011;23311;48.776;9.162;2023-03-13T13:14:02;1.30;;;1.00;;
291;SDS011;23311;48.776;9.162;2023-03-13T13:16:53;3.00;;;1.00;;
291;SDS011;23311;48.776;9.162;2023-03-13T13:19:42;2.20;;;1.47;;
291;SDS011;23311;48.776;9.162;2023-03-13T13:25:30;2.50;;;1.20;;
291;SDS011;23311;48.776;9.162;2023-03-13T13:28:11;1.43;;;0.70;;
291;SDS011;23311;48.776;9.162;2023-03-13T13:30:53;3.80;;;1.10;;
291;SDS011;23311;48.776;9.162;2023-03-13T13:33:35;2.50;;;0.87;;
291;SDS011;23311;48.776;9.162;2023-03-13T13:38:57;2.33;;;1.10;;
291;SDS011;23311;48.776;9.162;2023-03-13T13:41:34;2.27;;;0.80;;
291;SDS011;23311;48.776;9.162;2023-03-13T13:46:55;1.60;;;0.60;;
291;SDS011;23311;48.776;9.162;2023-03-13T13:49:31;1.23;;;0.70;;
291;SDS011;23311;48.776;9.162;2023-03-13T13:58:13;2.37;;;0.80;;
291;SDS011;23311;48.776;9.162;2023-03-13T14:00:47;2.43;;;0.90;;
291;SDS011;23311;48.776;9.162;2023-03-13T14:03:21;1.83;;;1.30;;
291;SDS011;23311;48.776;9.162;2023-03-13T14:05:51;4.03;;;0.77;;
291;SDS011;23311;48.776;9.162;2023-03-13T14:08:23;2.20;;;0.83;;
291;SDS011;23311;48.776;9.162;2023-03-13T14:11:02;2.00;;;0.70;;
291;SDS011;23311;48.776;9.162;2023-03-13T14:13:36;1.30;;;0.63;;
291;SDS011;23311;48.776;9.162;2023-03-13T14:16:19;2.30;;;0.70;;
291;SDS011;23311;48.776;9.162;2023-03-13T14:18:50;2.37;;;0.83;;
291;SDS011;23311;48.776;9.162;2023-03-13T14:21:20;2.20;;;1.17;;
291;SDS011;23311;48.776;9.162;2023-03-13T14:23:49;1.97;;;0.93;;
291;SDS011;23311;48.776;9.162;2023-03-13T14:26:18;1.77;;;0.90;;
291;SDS011;23311;48.776;9.162;2023-03-13T14:28:49;1.73;;;0.67;;
291;SDS011;23311;48.776;9.162;2023-03-13T14:31:22;1.43;;;0.80;;
291;SDS011;23311;48.776;9.162;2023-03-13T14:33:53;2.10;;;0.90;;
291;SDS011;23311;48.776;9.162;2023-03-13T14:36:22;2.70;;;1.10;;
291;SDS011;23311;48.776;9.162;2023-03-13T14:38:50;2.20;;;0.73;;
291;SDS011;23311;48.776;9.162;2023-03-13T14:41:23;2.20;;;0.80;;
291;SDS011;23311;48.776;9.162;2023-03-13T14:44:01;3.83;;;0.90;;
291;SDS011;23311;48.776;9.162;2023-03-13T14:46:32;2.23;;;1.00;;
291;SDS011;23311;48.776;9.162;2023-03-13T14:49:06;5.63;;;1.10;;
291;SDS011;23311;48.776;9.162;2023-03-13T14:51:40;2.93;;;0.90;;
291;SDS011;23311;48.776;9.162;2023-03-13T14:54:24;1.87;;;1.10;;
291;SDS011;23311;48.776;9.162;2023-03-13T14:57:01;2.60;;;0.80;;
291;SDS011;23311;48.776;9.162;2023-03-13T14:59:41;1.77;;;0.90;;
291;SDS011;23311;48.776;9.162;2023-03-13T15:02:13;3.80;;;1.20;;
291;SDS011;23311;48.776;9.162;2023-03-13T15:07:34;3.90;;;1.03;;
291;SDS011;23311;48.776;9.162;2023-03-13T15:10:17;1.30;;;0.90;;
291;SDS011;23311;48.776;9.162;2023-03-13T15:12:46;2.73;;;1.23;;
291;SDS011;23311;48.776;9.162;2023-03-13T15:15:16;1.87;;;1.00;;
291;SDS011;23311;48.776;9.162;2023-03-13T15:17:45;2.13;;;1.20;;
291;SDS011;23311;48.776;9.162;2023-03-13T15:20:13;2.37;;;0.73;;
291;SDS011;23311;48.776;9.162;2023-03-13T15:22:42;1.50;;;1.00;;
291;SDS011;23311;48.776;9.162;2023-03-13T15:25:13;2.07;;;1.40;;
291;SDS011;23311;48.776;9.162;2023-03-13T15:27:43;1.80;;;1.03;;
291;SDS011;23311;48.776;9.162;2023-03-13T15:30:13;2.43;;;0.90;;
291;SDS011;23311;48.776;9.162;2023-03-13T15:32:44;1.43;;;0.97;;
291;SDS011;23311;48.776;9.162;2023-03-13T15:35:20;1.73;;;0.90;;
291;SDS011;23311;48.776;9.162;2023-03-13T15:37:50;2.10;;;0.80;;
291;SDS011;23311;48.776;9.162;2023-03-13T15:40:19;1.60;;;0.80;;
291;SDS011;23311;48.776;9.162;2023-03-13T15:42:49;3.30;;;1.10;;
291;SDS011;23311;48.776;9.162;2023-03-13T15:45:18;1.50;;;0.80;;
291;SDS011;23311;48.776;9.162;2023-03-13T15:47:48;2.63;;;1.00;;
291;SDS011;23311;48.776;9.162;2023-03-13T15:50:17;1.43;;;1.27;;
291;SDS011;23311;48.776;9.162;2023-03-13T15:52:47;2.33;;;1.10;;
291;SDS011;23311;48.776;9.162;2023-03-13T15:55:15;4.80;;;1.10;;
291;SDS011;23311;48.776;9.162;2023-03-13T15:57:44;3.03;;;1.47;;
291;SDS011;23311;48.776;9.162;2023-03-13T16:00:17;2.10;;;1.00;;
291;SDS011;23311;48.776;9.162;2023-03-13T16:02:47;1.40;;;0.70;;